Time;durP1;ratioP1;P1;durP2;ratioP2;P2;SDS_P1;SDS_P2;PMS_P1;PMS_P2;Temp;Humidity;BMP_temperature;BMP_pressure;BME280_temperature;BME280_humidity;BME280_pressure;Samples;Min_cycle;Max_cycle;Signal;HPM_P1;HPM_P2
2023/03/30 00:02:12;;;;;;;11.63;3.85;;;14.20;99.90;;;;;;5085264;28;20104;-68
2023/03/30 00:04:41;;;;;;;10.60;3.28;;;14.30;99.90;;;;;;5093373;28;20523;-68
2023/03/30 00:07:08;;;;;;;12.00;4.07;;;14.20;99.90;;;;;;5092143;28;20448;-70
2023/03/30 00:09:41;;;;;;;12.23;4.70;;;14.20;99.90;;;;;;5087526;28;20036;-69
2023/03/30 00:12:07;;;;;;;17.40;4.97;;;14.20;99.90;;;;;;5089227;28;20744;-68
2023/03/30 00:14:36;;;;;;;14.52;3.72;;;14.30;99.90;;;;;;5092414;28;20039;-68
2023/03/30 00:17:06;;;;;;;14.77;3.80;;;14.20;99.90;;;;;;5092104;28;20372;-66
2023/03/30 00:19:32;;;;;;;14.88;4.38;;;14.10;99.90;;;;;;5093068;28;20110;-68
2023/03/30 00:21:58;;;;;;;6.20;2.75;;;14.00;99.90;;;;;;5092156;28;20107;-69
2023/03/30 00:24:23;;;;;;;11.90;3.90;;;13.90;99.90;;;;;;5093239;28;20051;-68
2023/03/30 00:26:49;;;;;;;12.70;4.05;;;13.70;99.90;;;;;;5090788;28;20039;-68
2023/03/30 00:29:14;;;;;;;8.18;3.10;;;13.60;99.90;;;;;;5092637;28;20032;-69
2023/03/30 00:31:40;;;;;;;8.18;3.53;;;13.50;99.90;;;;;;5087439;28;20032;-69
2023/03/30 00:34:06;;;;;;;10.18;4.07;;;13.40;99.90;;;;;;5091631;28;20024;-69
2023/03/30 00:36:35;;;;;;;13.82;3.90;;;13.40;99.90;;;;;;5092668;28;20336;-69
2023/03/30 00:39:05;;;;;;;11.48;4.32;;;13.30;99.90;;;;;;5081979;28;20038;-68
2023/03/30 00:41:32;;;;;;;11.90;4.32;;;13.30;99.90;;;;;;5082535;28;20027;-69
2023/03/30 00:44:05;;;;;;;14.18;4.45;;;13.20;99.90;;;;;;5086530;28;20472;-68
2023/03/30 00:46:31;;;;;;;15.57;3.30;;;13.20;99.90;;;;;;5092031;28;20488;-68
2023/03/30 00:49:03;;;;;;;11.27;3.42;;;13.20;99.90;;;;;;5088636;28;20026;-69
2023/03/30 00:51:31;;;;;;;8.73;3.70;;;13.20;99.90;;;;;;5092443;28;20177;-69
2023/03/30 00:54:06;;;;;;;9.45;3.25;;;13.20;99.90;;;;;;5091982;28;20131;-68
2023/03/30 00:56:32;;;;;;;12.98;3.58;;;13.10;99.90;;;;;;5083433;28;20410;-69
2023/03/30 00:59:01;;;;;;;15.00;4.25;;;13.10;99.90;;;;;;5092331;28;20077;-68
2023/03/30 01:01:28;;;;;;;15.25;3.80;;;13.10;99.90;;;;;;5092553;28;20035;-69
2023/03/30 01:04:01;;;;;;;16.90;3.90;;;13.10;99.90;;;;;;5088924;28;20032;-69
2023/03/30 01:06:28;;;;;;;10.55;3.35;;;13.00;99.90;;;;;;5092471;28;20498;-68
2023/03/30 01:08:55;;;;;;;14.85;4.30;;;13.00;99.90;;;;;;5089689;28;20103;-69
2023/03/30 01:11:21;;;;;;;15.23;4.05;;;13.00;99.90;;;;;;5091837;28;20472;-68
2023/03/30 01:13:52;;;;;;;10.63;3.47;;;12.90;99.90;;;;;;5091572;28;20034;-69
2023/03/30 01:16:30;;;;;;;18.77;4.20;;;12.90;99.90;;;;;;5092000;28;20056;-68
2023/03/30 01:19:33;;;;;;;11.40;3.38;;;12.80;99.90;;;;;;5092014;28;20059;-68
2023/03/30 01:22:23;;;;;;;12.63;3.83;;;12.70;99.90;;;;;;5092196;28;20028;-69
2023/03/30 01:25:13;;;;;;;14.02;3.22;;;12.70;99.90;;;;;;5092840;28;20052;-69
2023/03/30 01:28:13;;;;;;;15.60;3.50;;;12.80;99.90;;;;;;5092753;28;20044;-69
2023/03/30 01:31:02;;;;;;;11.52;2.80;;;12.70;99.90;;;;;;5092023;28;20044;-68
2023/03/30 01:33:34;;;;;;;14.38;3.47;;;12.70;99.90;;;;;;5092447;28;20490;-68
2023/03/30 01:36:38;;;;;;;8.55;2.25;;;12.70;99.90;;;;;;5092371;28;20067;-68
2023/03/30 01:39:03;;;;;;;13.27;3.17;;;12.70;99.90;;;;;;5092695;28;20036;-68
2023/03/30 01:41:36;;;;;;;11.45;2.70;;;12.70;99.90;;;;;;5091747;28;20034;-68
2023/03/30 01:44:16;;;;;;;11.05;3.47;;;12.70;99.90;;;;;;5092554;28;20024;-68
2023/03/30 01:46:54;;;;;;;11.82;2.63;;;12.70;99.90;;;;;;5092215;28;20128;-69
2023/03/30 01:49:35;;;;;;;13.88;3.17;;;12.80;99.90;;;;;;5092130;28;20119;-69
2023/03/30 01:52:20;;;;;;;13.60;3.17;;;12.80;99.90;;;;;;5083917;28;20122;-68
2023/03/30 01:54:57;;;;;;;11.45;2.55;;;12.80;99.90;;;;;;5075162;28;20035;-68
2023/03/30 01:57:36;;;;;;;5.95;1.95;;;12.90;99.90;;;;;;5076121;28;20115;-69
2023/03/30 02:00:11;;;;;;;14.98;3.38;;;12.90;99.90;;;;;;5082297;28;20081;-69
2023/03/30 02:02:39;;;;;;;10.45;2.95;;;13.00;99.90;;;;;;5095801;28;20078;-69
2023/03/30 02:05:06;;;;;;;12.88;2.75;;;13.00;99.90;;;;;;5096116;28;20130;-68
2023/03/30 02:07:35;;;;;;;12.50;3.17;;;13.10;99.90;;;;;;5096142;28;20047;-68
2023/03/30 02:10:06;;;;;;;14.48;3.10;;;13.10;99.90;;;;;;5095640;28;20040;-68
2023/03/30 02:12:32;;;;;;;16.08;3.05;;;13.10;99.90;;;;;;5096139;28;20051;-68
2023/03/30 02:15:01;;;;;;;13.32;2.67;;;13.10;99.90;;;;;;5095898;28;20434;-70
2023/03/30 02:17:28;;;;;;;10.77;2.90;;;13.10;99.90;;;;;;5091844;28;20032;-69
2023/03/30 02:19:56;;;;;;;9.75;2.30;;;13.10;99.90;;;;;;5079043;28;20417;-69
2023/03/30 02:22:25;;;;;;;17.02;3.80;;;13.10;99.90;;;;;;5096094;28;20054;-68
2023/03/30 02:24:53;;;;;;;16.45;3.45;;;13.00;99.90;;;;;;5096078;28;20052;-68
2023/03/30 02:27:20;;;;;;;11.32;2.80;;;13.10;99.90;;;;;;5095840;28;20036;-68
2023/03/30 02:29:46;;;;;;;8.93;2.05;;;13.10;99.90;;;;;;5095420;28;20038;-69
2023/03/30 02:32:44;;;;;;;16.33;3.53;;;13.10;99.90;;;;;;5095955;28;20025;-69
2023/03/30 02:35:35;;;;;;;14.88;3.17;;;13.10;99.90;;;;;;5095834;28;20545;-69
2023/03/30 02:38:39;;;;;;;13.27;3.22;;;13.20;99.90;;;;;;5095581;28;20032;-68
2023/03/30 02:41:31;;;;;;;9.55;2.40;;;13.20;99.90;;;;;;5095247;28;20032;-68
2023/03/30 02:44:16;;;;;;;14.30;2.75;;;13.20;99.90;;;;;;5064304;28;20040;-69
2023/03/30 02:46:44;;;;;;;14.77;2.88;;;13.20;99.90;;;;;;5095703;28;20083;-69
2023/03/30 02:49:49;;;;;;;15.38;2.92;;;13.20;99.90;;;;;;5095025;28;20028;-69
2023/03/30 02:52:41;;;;;;;9.15;2.47;;;13.20;99.90;;;;;;5095394;28;20039;-69
2023/03/30 02:55:10;;;;;;;;;;;13.20;99.90;;;;;;5085312;28;20084;-69
2023/03/30 02:58:17;;;;;;;12.80;2.85;;;13.20;99.90;;;;;;5095162;28;19994;-69
2023/03/30 03:00:57;;;;;;;13.88;2.55;;;13.20;99.90;;;;;;5063122;28;20127;-69
2023/03/30 03:03:32;;;;;;;18.75;3.00;;;13.20;99.90;;;;;;5092651;28;20032;-69
2023/03/30 03:06:01;;;;;;;14.50;2.95;;;13.20;99.90;;;;;;5089154;28;20035;-69
2023/03/30 03:08:32;;;;;;;18.88;2.90;;;13.20;99.90;;;;;;5091502;28;20379;-69
2023/03/30 03:10:58;;;;;;;13.75;2.70;;;13.20;99.90;;;;;;5088804;28;20036;-69
2023/03/30 03:13:24;;;;;;;13.65;2.53;;;13.20;99.90;;;;;;5089910;28;20034;-68
2023/03/30 03:15:51;;;;;;;9.68;2.50;;;13.20;99.90;;;;;;5089617;28;20086;-69
2023/03/30 03:18:17;;;;;;;14.00;2.38;;;13.20;99.90;;;;;;5088776;28;20028;-69
2023/03/30 03:20:43;;;;;;;11.43;3.22;;;13.20;99.90;;;;;;5092798;28;20041;-69
2023/03/30 03:23:08;;;;;;;9.73;2.20;;;13.20;99.90;;;;;;5093655;28;20032;-68
2023/03/30 03:25:35;;;;;;;14.23;3.33;;;13.10;99.90;;;;;;5093350;28;20075;-69
2023/03/30 03:28:00;;;;;;;14.10;2.75;;;13.10;99.90;;;;;;5090983;28;20024;-69
2023/03/30 03:30:26;;;;;;;12.73;2.40;;;13.10;99.90;;;;;;5090706;28;20039;-68
2023/03/30 03:32:51;;;;;;;15.27;2.80;;;13.10;99.90;;;;;;5091177;28;20047;-69
2023/03/30 03:35:17;;;;;;;11.90;2.40;;;13.10;99.90;;;;;;5093420;28;20024;-69
2023/03/30 03:37:42;;;;;;;13.77;2.90;;;13.10;99.90;;;;;;5093177;28;20020;-69
2023/03/30 03:40:11;;;;;;;8.07;2.13;;;13.10;99.90;;;;;;5090652;28;20139;-68
2023/03/30 03:42:37;;;;;;;7.47;2.22;;;13.10;99.90;;;;;;5091417;28;20031;-69
2023/03/30 03:45:03;;;;;;;14.35;2.80;;;13.20;99.90;;;;;;5093337;28;20110;-68
2023/03/30 03:47:31;;;;;;;9.05;2.05;;;13.20;99.90;;;;;;5093232;28;20093;-68
2023/03/30 03:49:56;;;;;;;11.93;2.58;;;13.20;99.90;;;;;;5092275;28;20450;-68
2023/03/30 03:52:22;;;;;;;14.38;4.10;;;13.10;99.90;;;;;;5091691;28;20108;-68
2023/03/30 03:54:47;;;;;;;14.13;3.10;;;13.20;99.90;;;;;;5091070;28;20055;-68
2023/03/30 03:57:13;;;;;;;14.88;3.65;;;13.10;99.90;;;;;;5091734;28;20081;-68
2023/03/30 03:59:38;;;;;;;11.60;3.08;;;13.10;99.90;;;;;;5089193;28;20038;-68
2023/03/30 04:02:04;;;;;;;18.38;3.22;;;13.10;99.90;;;;;;5089173;28;20106;-68
2023/03/30 04:04:30;;;;;;;13.63;2.92;;;13.00;99.90;;;;;;5092829;28;20423;-68
2023/03/30 04:06:55;;;;;;;17.75;4.10;;;13.00;99.90;;;;;;5092456;28;20072;-68
2023/03/30 04:09:22;;;;;;;16.65;3.90;;;12.90;99.90;;;;;;5092489;28;20379;-68
2023/03/30 04:11:48;;;;;;;15.95;2.80;;;12.90;99.90;;;;;;5090603;28;20048;-68
2023/03/30 04:14:14;;;;;;;16.42;3.53;;;12.90;99.90;;;;;;5094090;28;20032;-68
2023/03/30 04:16:39;;;;;;;14.15;2.90;;;12.90;99.90;;;;;;5093844;28;20028;-68
2023/03/30 04:19:07;;;;;;;19.55;3.90;;;12.90;99.90;;;;;;5087528;28;20039;-68
2023/03/30 04:21:34;;;;;;;13.57;3.00;;;12.80;99.90;;;;;;5080562;28;20071;-68
2023/03/30 04:24:00;;;;;;;14.90;2.30;;;12.70;99.90;;;;;;5089082;28;20059;-68
2023/03/30 04:26:27;;;;;;;16.73;3.28;;;12.60;99.90;;;;;;5093633;28;20047;-69
2023/03/30 04:28:53;;;;;;;16.95;3.20;;;12.50;99.90;;;;;;5089193;28;20032;-69
2023/03/30 04:31:18;;;;;;;19.67;3.80;;;12.50;99.90;;;;;;5085112;28;20038;-69
2023/03/30 04:33:49;;;;;;;22.73;3.67;;;12.40;99.90;;;;;;5093169;28;20024;-69
2023/03/30 04:36:16;;;;;;;17.67;3.55;;;12.30;99.90;;;;;;5093677;28;20456;-69
2023/03/30 04:38:56;;;;;;;24.27;3.80;;;12.30;99.90;;;;;;5093339;28;20059;-69
2023/03/30 04:41:25;;;;;;;16.30;3.60;;;12.20;99.90;;;;;;5092875;28;20028;-69
2023/03/30 04:43:51;;;;;;;25.20;3.83;;;12.20;99.90;;;;;;5093621;28;20029;-70
2023/03/30 04:46:16;;;;;;;17.60;3.58;;;12.10;99.90;;;;;;5093081;28;20043;-69
2023/03/30 04:48:42;;;;;;;16.00;3.35;;;12.10;99.90;;;;;;5092749;28;20043;-69
2023/03/30 04:51:07;;;;;;;22.85;3.88;;;12.00;99.90;;;;;;5092907;28;20099;-70
2023/03/30 04:53:33;;;;;;;23.38;4.40;;;12.00;99.90;;;;;;5093824;28;20028;-69
2023/03/30 04:55:58;;;;;;;25.90;6.43;;;12.00;99.90;;;;;;5093231;28;20071;-69
2023/03/30 04:58:24;;;;;;;20.13;5.25;;;11.90;99.90;;;;;;5093112;28;20048;-69
2023/03/30 05:00:50;;;;;;;29.23;6.13;;;11.80;99.90;;;;;;5092406;28;20024;-69
2023/03/30 05:03:16;;;;;;;26.73;6.28;;;11.80;99.90;;;;;;5093074;28;20028;-70
2023/03/30 05:05:42;;;;;;;24.73;6.28;;;11.70;99.90;;;;;;5092848;28;20030;-68
2023/03/30 05:08:07;;;;;;;31.98;8.55;;;11.70;99.90;;;;;;5092775;28;20491;-69
2023/03/30 05:10:33;;;;;;;26.77;4.68;;;11.70;99.90;;;;;;5092279;28;20039;-68
2023/03/30 05:12:59;;;;;;;27.23;6.07;;;11.60;99.90;;;;;;5091251;28;20035;-68
2023/03/30 05:15:24;;;;;;;22.85;4.32;;;11.60;99.90;;;;;;5092690;28;20024;-68
2023/03/30 05:17:50;;;;;;;21.35;4.57;;;11.60;99.90;;;;;;5092306;28;20032;-68
2023/03/30 05:20:17;;;;;;;25.17;4.88;;;11.60;99.90;;;;;;5092572;28;20035;-68
2023/03/30 05:22:43;;;;;;;26.73;6.05;;;11.50;99.90;;;;;;5092998;28;20136;-68
2023/03/30 05:25:08;;;;;;;28.27;6.38;;;11.50;99.90;;;;;;5092405;28;20048;-68
2023/03/30 05:27:34;;;;;;;35.58;8.13;;;11.50;99.90;;;;;;5092827;28;20051;-68
2023/03/30 05:30:00;;;;;;;29.85;8.30;;;11.50;99.90;;;;;;5091708;28;20077;-68
2023/03/30 05:32:26;;;;;;;23.08;5.53;;;11.50;99.90;;;;;;5092149;28;20035;-68
2023/03/30 05:34:52;;;;;;;28.63;7.68;;;11.40;99.90;;;;;;5090057;28;20448;-68
2023/03/30 05:37:17;;;;;;;31.08;6.43;;;11.40;99.90;;;;;;5085909;28;20105;-68
2023/03/30 05:39:43;;;;;;;26.98;6.75;;;11.40;99.90;;;;;;5091774;28;20131;-68
2023/03/30 05:42:10;;;;;;;31.17;6.22;;;11.30;99.90;;;;;;5091838;28;20056;-68
2023/03/30 05:44:36;;;;;;;32.38;5.93;;;11.40;99.90;;;;;;5092002;28;20039;-68
2023/03/30 05:47:02;;;;;;;31.77;6.22;;;11.40;99.90;;;;;;5092198;28;20040;-69
2023/03/30 05:49:27;;;;;;;36.47;7.55;;;11.40;99.90;;;;;;5092479;28;20020;-68
2023/03/30 05:51:53;;;;;;;28.77;5.18;;;11.40;99.90;;;;;;5090820;28;20021;-69
2023/03/30 05:54:18;;;;;;;29.55;6.13;;;11.40;99.90;;;;;;5092322;28;20020;-69
2023/03/30 05:56:44;;;;;;;35.20;8.48;;;11.40;99.90;;;;;;5091924;28;20105;-68
2023/03/30 05:59:11;;;;;;;26.63;6.40;;;11.40;99.90;;;;;;5091741;28;20608;-69
2023/03/30 06:01:37;;;;;;;32.38;6.90;;;11.40;99.90;;;;;;5092022;28;20031;-69
2023/03/30 06:04:03;;;;;;;31.10;6.88;;;11.40;99.90;;;;;;5091921;28;20029;-69
2023/03/30 06:06:29;;;;;;;32.25;5.38;;;11.40;99.90;;;;;;5092392;28;20024;-67
2023/03/30 06:08:54;;;;;;;31.33;5.68;;;11.40;99.90;;;;;;5092010;28;20070;-70
2023/03/30 06:11:20;;;;;;;26.67;5.53;;;11.50;99.90;;;;;;5091796;28;20055;-69
2023/03/30 06:13:45;;;;;;;29.63;5.50;;;11.50;99.90;;;;;;5092155;28;20365;-69
2023/03/30 06:16:11;;;;;;;38.10;6.07;;;11.60;99.90;;;;;;5091860;28;20028;-69
2023/03/30 06:18:37;;;;;;;33.20;6.15;;;11.60;99.90;;;;;;5082416;28;20035;-69
2023/03/30 06:21:07;;;;;;;25.00;5.50;;;11.60;99.90;;;;;;5089879;28;20028;-69
2023/03/30 06:23:34;;;;;;;27.70;6.38;;;11.60;99.90;;;;;;5091515;28;20032;-69
2023/03/30 06:26:00;;;;;;;27.73;5.55;;;11.60;99.90;;;;;;5091639;28;20024;-69
2023/03/30 06:28:26;;;;;;;34.83;7.25;;;11.60;99.90;;;;;;5091750;28;20035;-69
2023/03/30 06:30:52;;;;;;;39.28;8.52;;;11.70;99.90;;;;;;5089769;28;20031;-69
2023/03/30 06:33:18;;;;;;;37.42;8.48;;;11.70;99.90;;;;;;5087801;28;20100;-68
2023/03/30 06:35:46;;;;;;;37.25;8.60;;;11.80;99.90;;;;;;5078644;28;20078;-68
2023/03/30 06:38:12;;;;;;;34.10;7.38;;;11.80;99.90;;;;;;5090543;28;20032;-68
2023/03/30 06:40:38;;;;;;;34.97;7.05;;;11.80;99.90;;;;;;5093901;28;20486;-68
2023/03/30 06:43:03;;;;;;;28.42;6.28;;;11.80;99.90;;;;;;5095647;28;20024;-68
2023/03/30 06:45:29;;;;;;;38.53;6.70;;;11.90;99.90;;;;;;5095716;28;20024;-68
2023/03/30 06:47:55;;;;;;;32.15;6.53;;;11.90;99.90;;;;;;5095353;28;20085;-68
2023/03/30 06:50:20;;;;;;;35.65;6.32;;;12.00;99.90;;;;;;5095408;28;20224;-68
2023/03/30 06:52:46;;;;;;;31.80;6.80;;;12.00;99.90;;;;;;5094821;28;20039;-68
2023/03/30 06:55:11;;;;;;;31.55;6.57;;;12.10;99.90;;;;;;5095139;28;20426;-68
2023/03/30 06:57:37;;;;;;;33.08;7.18;;;12.10;99.90;;;;;;5095240;28;20582;-68
2023/03/30 07:00:13;;;;;;;34.72;6.70;;;12.20;99.90;;;;;;5095373;28;20103;-69
2023/03/30 07:02:40;;;;;;;34.70;8.45;;;12.10;99.90;;;;;;5094975;28;20036;-68
2023/03/30 07:05:06;;;;;;;33.03;6.43;;;12.10;99.90;;;;;;5095105;28;20024;-69
2023/03/30 07:07:32;;;;;;;30.58;4.82;;;12.10;99.90;;;;;;5095038;28;20122;-69
2023/03/30 07:09:58;;;;;;;41.83;8.65;;;12.10;99.90;;;;;;5094496;28;20024;-69
2023/03/30 07:12:24;;;;;;;32.33;6.65;;;12.10;99.90;;;;;;5095124;28;20539;-69
2023/03/30 07:14:49;;;;;;;29.90;5.75;;;12.10;99.90;;;;;;5093775;28;20491;-69
2023/03/30 07:17:15;;;;;;;30.90;7.28;;;12.10;99.90;;;;;;5093158;28;20123;-68
2023/03/30 07:19:41;;;;;;;37.38;8.00;;;12.10;99.90;;;;;;5092958;28;20123;-68
2023/03/30 07:22:07;;;;;;;35.45;6.85;;;12.10;99.90;;;;;;5093308;28;20032;-69
2023/03/30 07:24:33;;;;;;;34.25;6.57;;;12.20;99.90;;;;;;5093170;28;20131;-69
2023/03/30 07:26:59;;;;;;;27.40;5.50;;;12.20;99.90;;;;;;5092899;28;20118;-69
2023/03/30 07:29:27;;;;;;;33.63;5.10;;;12.30;99.90;;;;;;5093179;28;20020;-69
2023/03/30 07:31:54;;;;;;;23.88;5.47;;;12.30;99.90;;;;;;5093093;28;20107;-69
2023/03/30 07:34:19;;;;;;;35.85;6.72;;;12.30;99.90;;;;;;5094561;28;20055;-69
2023/03/30 07:36:46;;;;;;;25.60;6.10;;;12.50;99.90;;;;;;5094634;28;20472;-69
2023/03/30 07:39:11;;;;;;;34.13;5.65;;;12.70;99.90;;;;;;5093319;28;20031;-69
2023/03/30 07:41:37;;;;;;;31.25;5.20;;;12.80;99.90;;;;;;5094386;28;20036;-69
2023/03/30 07:44:02;;;;;;;28.45;5.55;;;13.00;99.90;;;;;;5094300;28;20035;-69
2023/03/30 07:46:28;;;;;;;29.48;5.80;;;13.40;99.90;;;;;;5094299;28;20024;-69
2023/03/30 07:48:54;;;;;;;27.90;5.65;;;13.70;99.90;;;;;;5094234;28;20158;-68
2023/03/30 07:51:19;;;;;;;36.72;5.95;;;14.10;99.90;;;;;;5093670;28;20027;-69
2023/03/30 07:53:47;;;;;;;29.38;6.28;;;14.50;99.90;;;;;;5093995;28;20056;-69
2023/03/30 07:56:12;;;;;;;26.98;6.22;;;15.00;99.90;;;;;;5092797;28;20036;-69
2023/03/30 07:58:38;;;;;;;29.23;5.07;;;15.50;99.90;;;;;;5093765;28;20039;-69
2023/03/30 08:01:04;;;;;;;30.50;7.07;;;15.90;99.90;;;;;;5093635;28;20038;-69
2023/03/30 08:03:33;;;;;;;35.28;7.00;;;15.80;99.90;;;;;;5094266;28;20111;-69
2023/03/30 08:06:03;;;;;;;44.83;16.65;;;16.20;99.90;;;;;;5093770;28;20027;-69
2023/03/30 08:08:30;;;;;;;24.30;7.20;;;16.10;99.90;;;;;;5094113;28;20116;-69
2023/03/30 08:10:55;;;;;;;27.55;5.90;;;16.10;99.90;;;;;;5093363;28;20060;-69
2023/03/30 08:13:21;;;;;;;26.95;5.30;;;16.20;99.90;;;;;;5093915;28;20477;-69
2023/03/30 08:15:47;;;;;;;23.67;5.45;;;16.20;99.90;;;;;;5085978;28;20107;-69
2023/03/30 08:18:13;;;;;;;29.00;7.13;;;16.20;99.90;;;;;;5084003;28;20059;-69
2023/03/30 08:20:40;;;;;;;28.40;5.35;;;16.10;99.90;;;;;;5087933;28;20073;-69
2023/03/30 08:23:07;;;;;;;36.40;7.40;;;16.40;99.90;;;;;;5088146;28;20024;-69
2023/03/30 08:25:33;;;;;;;34.58;8.93;;;16.70;99.90;;;;;;5081781;28;20051;-69
2023/03/30 08:27:59;;;;;;;26.17;6.38;;;17.00;99.90;;;;;;5093392;28;20040;-69
2023/03/30 08:30:25;;;;;;;33.55;7.57;;;17.40;99.90;;;;;;5090050;28;20452;-69
2023/03/30 08:32:52;;;;;;;28.08;6.75;;;17.40;99.90;;;;;;5092086;28;20462;-69
2023/03/30 08:35:17;;;;;;;41.20;13.95;;;17.30;99.90;;;;;;5091495;28;20120;-69
2023/03/30 08:37:43;;;;;;;28.92;7.22;;;17.40;99.90;;;;;;5092361;28;20119;-69
2023/03/30 08:40:13;;;;;;;29.83;7.53;;;17.50;99.90;;;;;;5093405;28;20107;-69
2023/03/30 08:43:02;;;;;;;41.97;12.52;;;17.40;99.90;;;;;;5092971;28;20055;-69
2023/03/30 08:45:39;;;;;;;46.50;16.48;;;17.30;99.90;;;;;;5073602;28;20487;-69
2023/03/30 08:48:15;;;;;;;36.78;11.00;;;17.50;99.90;;;;;;5084229;28;20471;-69
2023/03/30 08:50:46;;;;;;;38.13;13.43;;;17.50;99.90;;;;;;5085856;28;20074;-69
2023/03/30 08:53:12;;;;;;;33.35;9.15;;;17.90;99.90;;;;;;5092910;28;20139;-69
2023/03/30 08:55:43;;;;;;;39.58;9.55;;;18.00;99.90;;;;;;5088232;28;20066;-69
2023/03/30 08:58:30;;;;;;;39.58;12.93;;;18.40;99.90;;;;;;5084669;28;20724;-69
2023/03/30 09:01:18;;;;;;;32.53;7.00;;;18.40;99.90;;;;;;5080701;28;20493;-70
2023/03/30 09:04:20;;;;;;;28.30;6.13;;;18.40;99.90;;;;;;5087256;28;20392;-70
2023/03/30 09:06:50;;;;;;;24.30;5.90;;;18.40;99.90;;;;;;5091698;28;20032;-68
2023/03/30 09:09:22;;;;;;;35.85;7.20;;;18.50;99.90;;;;;;5076428;28;20085;-68
2023/03/30 09:11:55;;;;;;;39.72;12.70;;;18.30;99.90;;;;;;5092489;28;20024;-68
2023/03/30 09:14:34;;;;;;;35.28;8.45;;;18.80;99.90;;;;;;5096871;28;20384;-69
2023/03/30 09:17:24;;;;;;;29.95;5.68;;;19.20;99.90;;;;;;5092010;28;20104;-69
2023/03/30 09:20:05;;;;;;;25.98;4.95;;;19.00;99.90;;;;;;5081645;28;20024;-69
2023/03/30 09:22:38;;;;;;;32.25;5.75;;;19.10;99.90;;;;;;5092397;28;20032;-69
2023/03/30 09:25:34;;;;;;;33.25;6.95;;;19.10;99.90;;;;;;5091809;28;20048;-69
2023/03/30 09:28:13;;;;;;;30.80;6.85;;;18.80;99.90;;;;;;5091810;28;20036;-69
2023/03/30 09:30:42;;;;;;;37.05;5.72;;;18.60;99.90;;;;;;5098714;28;20368;-68
2023/03/30 09:33:44;;;;;;;31.88;6.05;;;18.70;99.90;;;;;;5096628;28;20548;-68
2023/03/30 09:36:15;;;;;;;33.13;6.07;;;19.20;99.90;;;;;;5083429;28;20043;-69
2023/03/30 09:38:40;;;;;;;31.58;5.60;;;19.40;99.90;;;;;;5092258;28;20036;-68
2023/03/30 09:41:20;;;;;;;31.85;5.82;;;19.30;99.90;;;;;;5092337;28;20035;-68
2023/03/30 09:43:49;;;;;;;35.30;6.70;;;19.40;99.90;;;;;;5075878;28;20099;-69
2023/03/30 09:46:16;;;;;;;31.80;6.35;;;19.40;99.90;;;;;;5091007;28;20036;-69
2023/03/30 09:48:43;;;;;;;29.95;7.45;;;19.20;99.90;;;;;;5092374;28;20031;-69
2023/03/30 09:51:28;;;;;;;31.63;6.68;;;19.30;99.90;;;;;;5092142;28;20115;-69
2023/03/30 09:54:02;;;;;;;31.20;6.13;;;19.40;99.90;;;;;;5076647;28;20032;-69
2023/03/30 09:56:37;;;;;;;30.80;6.70;;;19.20;99.90;;;;;;5084459;28;20027;-69
2023/03/30 09:59:30;;;;;;;24.73;5.50;;;18.90;99.90;;;;;;5092022;28;20028;-69
2023/03/30 10:02:09;;;;;;;34.63;6.63;;;18.80;99.90;;;;;;5077739;28;20081;-69
2023/03/30 10:04:59;;;;;;;35.22;7.57;;;19.10;99.90;;;;;;5090575;28;20103;-69
2023/03/30 10:07:32;;;;;;;33.88;6.45;;;19.30;99.90;;;;;;5091615;28;20492;-69
2023/03/30 10:10:11;;;;;;;32.17;6.68;;;19.00;99.90;;;;;;5083656;28;20040;-69
2023/03/30 10:12:36;;;;;;;35.20;7.55;;;19.00;99.90;;;;;;5087091;28;20036;-69
2023/03/30 10:15:03;;;;;;;33.05;6.72;;;19.10;99.90;;;;;;5093158;28;20024;-69
2023/03/30 10:17:29;;;;;;;32.60;7.95;;;19.40;99.90;;;;;;5095582;28;20032;-69
2023/03/30 10:20:34;;;;;;;37.55;7.53;;;19.60;99.90;;;;;;5095631;28;20083;-69
2023/03/30 10:23:04;;;;;;;38.65;6.75;;;19.90;99.90;;;;;;5089639;28;20047;-69
2023/03/30 10:25:32;;;;;;;30.10;6.38;;;20.20;99.90;;;;;;5084102;28;20062;-69
2023/03/30 10:28:02;;;;;;;30.42;6.45;;;19.90;99.90;;;;;;5084934;28;20036;-69
2023/03/30 10:30:28;;;;;;;31.50;5.72;;;19.70;99.90;;;;;;5095447;28;20020;-69
2023/03/30 10:32:57;;;;;;;28.15;6.50;;;19.70;99.90;;;;;;5095192;28;20020;-69
2023/03/30 10:35:30;;;;;;;34.85;7.32;;;19.70;99.90;;;;;;5094654;28;20471;-69
2023/03/30 10:37:57;;;;;;;32.13;6.65;;;19.40;99.90;;;;;;5095109;28;20024;-69
2023/03/30 10:40:33;;;;;;;38.08;7.65;;;19.40;99.90;;;;;;5094282;28;20426;-69
2023/03/30 10:43:01;;;;;;;32.65;6.13;;;19.30;99.90;;;;;;5095545;28;20028;-69
2023/03/30 10:45:39;;;;;;;33.00;7.65;;;19.30;99.90;;;;;;5094430;28;20391;-69
2023/03/30 10:48:30;;;;;;;31.95;6.45;;;19.50;99.90;;;;;;5094932;28;20040;-69
2023/03/30 10:51:20;;;;;;;29.08;5.80;;;19.70;99.90;;;;;;5095426;28;20427;-69
2023/03/30 10:53:52;;;;;;;30.02;6.60;;;19.70;99.90;;;;;;5079377;28;20019;-68
2023/03/30 10:56:30;;;;;;;32.75;6.88;;;19.60;99.90;;;;;;5094894;28;20468;-69
2023/03/30 10:58:56;;;;;;;35.42;6.13;;;19.20;99.90;;;;;;5089906;28;20036;-69
2023/03/30 11:01:51;;;;;;;35.33;6.10;;;19.40;99.90;;;;;;5089822;28;20429;-69
2023/03/30 11:04:32;;;;;;;34.65;6.50;;;19.50;99.90;;;;;;5094921;28;20032;-69
2023/03/30 11:07:00;;;;;;;28.38;5.57;;;19.30;99.90;;;;;;5094392;28;20044;-69
2023/03/30 11:09:33;;;;;;;28.52;6.38;;;19.20;99.90;;;;;;5094603;28;20028;-69
2023/03/30 11:12:14;;;;;;;32.45;6.28;;;19.00;99.90;;;;;;5093934;28;20410;-69
2023/03/30 11:14:48;;;;;;;29.92;6.97;;;19.40;99.90;;;;;;5089278;28;20117;-69
2023/03/30 11:17:27;;;;;;;30.50;6.63;;;19.40;99.90;;;;;;5092541;28;20110;-69
2023/03/30 11:20:00;;;;;;;34.50;6.53;;;19.00;99.90;;;;;;5095376;28;20024;-69
2023/03/30 11:22:49;;;;;;;25.10;6.10;;;18.80;99.90;;;;;;5075254;28;20077;-69
2023/03/30 11:25:26;;;;;;;32.70;6.15;;;18.90;99.90;;;;;;5074801;28;20189;-69
2023/03/30 11:27:58;;;;;;;29.08;5.25;;;18.40;99.90;;;;;;5074083;28;20052;-69
2023/03/30 11:30:30;;;;;;;41.60;6.65;;;17.70;99.90;;;;;;5074620;28;20028;-69
2023/03/30 11:33:19;;;;;;;32.75;6.13;;;17.30;99.90;;;;;;5081673;28;20076;-69
2023/03/30 11:36:20;;;;;;;31.92;6.35;;;17.00;99.90;;;;;;5093530;28;20020;-68
2023/03/30 11:39:06;;;;;;;31.38;6.72;;;16.90;99.90;;;;;;5094367;28;20028;-68
2023/03/30 11:41:40;;;;;;;26.10;5.38;;;17.00;99.90;;;;;;5094624;28;20120;-68
2023/03/30 11:44:09;;;;;;;30.58;5.47;;;17.10;99.90;;;;;;5094524;28;20031;-69
2023/03/30 11:47:19;;;;;;;37.58;6.15;;;17.20;99.90;;;;;;5094246;28;20035;-69
2023/03/30 11:50:06;;;;;;;34.10;5.38;;;17.40;99.90;;;;;;5083777;28;20032;-69
2023/03/30 11:52:46;;;;;;;31.90;5.82;;;17.40;99.90;;;;;;5084892;28;20031;-69
2023/03/30 11:55:41;;;;;;;27.88;6.07;;;17.70;99.90;;;;;;5090525;28;20027;-69
2023/03/30 11:58:40;;;;;;;36.33;6.00;;;18.10;99.90;;;;;;5093920;28;20020;-70
2023/03/30 12:01:13;;;;;;;31.38;5.53;;;18.00;99.90;;;;;;5094000;28;20020;-69
2023/03/30 12:03:45;;;;;;;31.10;5.68;;;17.70;99.90;;;;;;5090528;28;20032;-69
2023/03/30 12:06:28;;;;;;;33.13;5.22;;;17.30;99.90;;;;;;5090175;28;20028;-69
2023/03/30 12:09:33;;;;;;;31.50;6.00;;;17.30;99.90;;;;;;5093147;28;20031;-69
2023/03/30 12:12:14;;;;;;;34.70;5.90;;;17.60;99.90;;;;;;5087956;28;20027;-69
2023/03/30 12:14:46;;;;;;;28.98;5.40;;;18.00;99.90;;;;;;5090917;28;20028;-69
2023/03/30 12:17:31;;;;;;;37.55;5.90;;;18.10;99.90;;;;;;5093816;28;20031;-69
2023/03/30 12:20:28;;;;;;;33.53;5.78;;;18.30;99.90;;;;;;5093709;28;20024;-69
2023/03/30 12:23:20;;;;;;;25.75;4.55;;;18.20;99.90;;;;;;5092149;28;20032;-69
2023/03/30 12:26:27;;;;;;;24.42;4.75;;;18.20;99.90;;;;;;5089426;28;20047;-69
2023/03/30 12:28:52;;;;;;;31.95;5.13;;;18.00;99.90;;;;;;5093548;28;20044;-69
2023/03/30 12:31:19;;;;;;;36.78;7.07;;;18.20;99.90;;;;;;5089980;28;20081;-69
2023/03/30 12:34:04;;;;;;;35.70;7.22;;;18.00;99.90;;;;;;5090777;28;20031;-69
2023/03/30 12:36:39;;;;;;;35.50;5.57;;;17.90;99.90;;;;;;5093615;28;20028;-69
2023/03/30 12:39:30;;;;;;;31.95;5.97;;;17.70;99.90;;;;;;5076991;28;20028;-69
2023/03/30 12:42:04;;;;;;;35.65;6.25;;;17.50;99.90;;;;;;5091051;28;20028;-69
2023/03/30 12:44:37;;;;;;;34.70;6.57;;;17.30;99.90;;;;;;5086902;28;20024;-69
2023/03/30 12:47:21;;;;;;;29.65;6.47;;;17.00;99.90;;;;;;5085475;28;20488;-69
2023/03/30 12:50:15;;;;;;;37.00;6.82;;;16.90;99.90;;;;;;5090839;28;20079;-70
2023/03/30 12:53:08;;;;;;;39.35;7.88;;;16.70;99.90;;;;;;5090115;28;20111;-69
2023/03/30 12:55:52;;;;;;;38.13;7.25;;;16.50;99.90;;;;;;5090303;28;20478;-68
2023/03/30 12:58:26;;;;;;;33.53;6.32;;;16.30;99.90;;;;;;5091159;28;20024;-69
2023/03/30 13:01:24;;;;;;;36.10;7.18;;;16.30;99.90;;;;;;5088671;28;20020;-69
2023/03/30 13:04:09;;;;;;;35.15;6.90;;;16.10;99.90;;;;;;5085040;28;20047;-69
2023/03/30 13:06:39;;;;;;;34.63;6.32;;;16.10;99.90;;;;;;5090624;28;20097;-69